sensor_id;sensor_type;location;lat;lon;timestamp;pressure;altitude;pressure_sealevel;temperature;humidity
29163;BME280;20331;53.144;8.208;2024-02-15T00:00:04;101476.56;;;12.47;100.00
29163;BME280;20331;53.144;8.208;2024-02-15T00:05:26;101479.19;;;12.47;100.00
29163;BME280;20331;53.144;8.208;2024-02-15T00:10:48;101484.50;;;12.43;100.00
29163;BME280;20331;53.144;8.208;2024-02-15T00:16:14;101481.00;;;12.44;100.00
29163;BME280;20331;53.144;8.208;2024-02-15T00:21:36;101494.84;;;12.44;100.00
29163;BME280;20331;53.144;8.208;2024-02-15T00:26:58;101484.38;;;12.47;100.00
29163;BME280;20331;53.144;8.208;2024-02-15T00:32:20;101488.78;;;12.45;100.00
29163;BME280;20331;53.144;8.208;2024-02-15T00:37:42;101482.69;;;12.46;100.00
29163;BME280;20331;53.144;8.208;2024-02-15T00:43:04;101477.59;;;12.42;100.00
29163;BME280;20331;53.144;8.208;2024-02-15T00:48:26;101478.47;;;12.42;100.00
29163;BME280;20331;53.144;8.208;2024-02-15T00:53:50;101491.31;;;12.47;100.00
29163;BME280;20331;53.144;8.208;2024-02-15T00:59:12;101495.00;;;12.40;100.00
29163;BME280;20331;53.144;8.208;2024-02-15T01:04:34;101511.31;;;12.43;100.00
29163;BME280;20331;53.144;8.208;2024-02-15T01:09:56;101500.97;;;12.42;100.00
29163;BME280;20331;53.144;8.208;2024-02-15T01:15:18;101503.53;;;12.43;100.00
29163;BME280;20331;53.144;8.208;2024-02-15T01:20:41;101506.03;;;12.46;100.00
29163;BME280;20331;53.144;8.208;2024-02-15T01:26:03;101506.91;;;12.47;100.00
29163;BME280;20331;53.144;8.208;2024-02-15T01:31:25;101505.94;;;12.49;100.00
29163;BME280;20331;53.144;8.208;2024-02-15T01:36:48;101499.16;;;12.45;100.00
29163;BME280;20331;53.144;8.208;2024-02-15T01:42:09;101505.94;;;12.49;100.00
29163;BME280;20331;53.144;8.208;2024-02-15T01:47:31;101510.31;;;12.49;100.00
29163;BME280;20331;53.144;8.208;2024-02-15T01:52:54;101495.66;;;12.46;100.00
29163;BME280;20331;53.144;8.208;2024-02-15T01:58:19;101499.06;;;12.48;100.00
29163;BME280;20331;53.144;8.208;2024-02-15T02:03:41;101499.94;;;12.47;100.00
29163;BME280;20331;53.144;8.208;2024-02-15T02:09:03;101483.50;;;12.48;100.00
29163;BME280;20331;53.144;8.208;2024-02-15T02:14:24;101466.28;;;12.44;100.00
29163;BME280;20331;53.144;8.208;2024-02-15T02:19:47;101471.38;;;12.47;100.00
29163;BME280;20331;53.144;8.208;2024-02-15T02:25:11;101473.06;;;12.50;100.00
29163;BME280;20331;53.144;8.208;2024-02-15T02:30:34;101486.03;;;12.50;100.00
29163;BME280;20331;53.144;8.208;2024-02-15T02:35:56;101493.78;;;12.51;100.00
29163;BME280;20331;53.144;8.208;2024-02-15T02:41:19;101492.09;;;12.50;100.00
29163;BME280;20331;53.144;8.208;2024-02-15T02:46:42;101487.72;;;12.52;100.00
29163;BME280;20331;53.144;8.208;2024-02-15T02:52:04;101489.50;;;12.50;100.00
29163;BME280;20331;53.144;8.208;2024-02-15T02:57:26;101496.53;;;12.47;100.00
29163;BME280;20331;53.144;8.208;2024-02-15T03:02:48;101493.72;;;12.53;100.00
29163;BME280;20331;53.144;8.208;2024-02-15T03:08:11;101491.13;;;12.53;100.00
29163;BME280;20331;53.144;8.208;2024-02-15T03:13:34;101491.38;;;12.45;100.00
29163;BME280;20331;53.144;8.208;2024-02-15T03:18:57;101491.38;;;12.45;100.00
29163;BME280;20331;53.144;8.208;2024-02-15T03:24:18;101495.56;;;12.49;100.00
29163;BME280;20331;53.144;8.208;2024-02-15T03:29:40;101494.91;;;12.43;100.00
29163;BME280;20331;53.144;8.208;2024-02-15T03:35:02;101505.28;;;12.43;100.00
29163;BME280;20331;53.144;8.208;2024-02-15T03:40:25;101511.53;;;12.36;100.00
29163;BME280;20331;53.144;8.208;2024-02-15T03:45:50;101502.97;;;12.32;100.00
29163;BME280;20331;53.144;8.208;2024-02-15T03:51:16;101516.81;;;12.31;100.00
29163;BME280;20331;53.144;8.208;2024-02-15T03:56:47;101507.41;;;12.27;100.00
29163;BME280;20331;53.144;8.208;2024-02-15T04:02:12;101506.53;;;12.28;100.00
29163;BME280;20331;53.144;8.208;2024-02-15T04:07:36;101516.91;;;12.28;100.00
29163;BME280;20331;53.144;8.208;2024-02-15T04:12:58;101515.19;;;12.27;100.00
29163;BME280;20331;53.144;8.208;2024-02-15T04:18:20;101521.28;;;12.26;100.00
29163;BME280;20331;53.144;8.208;2024-02-15T04:23:42;101508.34;;;12.25;100.00
29163;BME280;20331;53.144;8.208;2024-02-15T04:29:05;101517.84;;;12.26;100.00
29163;BME280;20331;53.144;8.208;2024-02-15T04:34:30;101512.72;;;12.23;100.00
29163;BME280;20331;53.144;8.208;2024-02-15T04:39:55;101520.47;;;12.24;100.00
29163;BME280;20331;53.144;8.208;2024-02-15T04:45:18;101503.22;;;12.23;100.00
29163;BME280;20331;53.144;8.208;2024-02-15T04:50:42;101511.88;;;12.22;100.00
29163;BME280;20331;53.144;8.208;2024-02-15T04:56:07;101517.16;;;12.19;100.00
29163;BME280;20331;53.144;8.208;2024-02-15T05:01:35;101517.16;;;12.19;100.00
29163;BME280;20331;53.144;8.208;2024-02-15T05:06:57;101509.22;;;12.24;100.00
29163;BME280;20331;53.144;8.208;2024-02-15T05:12:23;101516.19;;;12.23;100.00
29163;BME280;20331;53.144;8.208;2024-02-15T05:17:48;101510.13;;;12.23;100.00
29163;BME280;20331;53.144;8.208;2024-02-15T05:23:10;101506.69;;;12.22;100.00
29163;BME280;20331;53.144;8.208;2024-02-15T05:28:33;101514.38;;;12.27;100.00
29163;BME280;20331;53.144;8.208;2024-02-15T05:33:56;101508.41;;;12.23;100.00
29163;BME280;20331;53.144;8.208;2024-02-15T05:39:19;101496.22;;;12.25;100.00
29163;BME280;20331;53.144;8.208;2024-02-15T05:44:43;101494.44;;;12.27;100.00
29163;BME280;20331;53.144;8.208;2024-02-15T05:50:06;101484.81;;;12.31;100.00
29163;BME280;20331;53.144;8.208;2024-02-15T05:55:28;101481.34;;;12.32;100.00
29163;BME280;20331;53.144;8.208;2024-02-15T06:00:52;101490.75;;;12.36;100.00
29163;BME280;20331;53.144;8.208;2024-02-15T06:06:16;101473.41;;;12.36;100.00
29163;BME280;20331;53.144;8.208;2024-02-15T06:11:38;101464.66;;;12.40;100.00
29163;BME280;20331;53.144;8.208;2024-02-15T06:17:00;101468.06;;;12.42;100.00
29163;BME280;20331;53.144;8.208;2024-02-15T06:22:22;101462.88;;;12.42;100.00
29163;BME280;20331;53.144;8.208;2024-02-15T06:27:44;101461.09;;;12.44;100.00
29163;BME280;20331;53.144;8.208;2024-02-15T06:33:06;101461.09;;;12.44;100.00
29163;BME280;20331;53.144;8.208;2024-02-15T06:39:03;101466.28;;;12.44;100.00
29163;BME280;20331;53.144;8.208;2024-02-15T06:44:47;101460.19;;;12.47;100.00
29163;BME280;20331;53.144;8.208;2024-02-15T06:50:13;101467.00;;;12.49;100.00
29163;BME280;20331;53.144;8.208;2024-02-15T06:55:37;101471.22;;;12.53;100.00
29163;BME280;20331;53.144;8.208;2024-02-15T07:01:02;101467.75;;;12.54;100.00
29163;BME280;20331;53.144;8.208;2024-02-15T07:06:24;101465.94;;;12.56;100.00
29163;BME280;20331;53.144;8.208;2024-02-15T07:11:45;101472.84;;;12.57;100.00
29163;BME280;20331;53.144;8.208;2024-02-15T07:17:13;101465.13;;;12.56;100.00
29163;BME280;20331;53.144;8.208;2024-02-15T07:22:35;101462.38;;;12.60;100.00
29163;BME280;20331;53.144;8.208;2024-02-15T07:27:57;101469.19;;;12.64;100.00
29163;BME280;20331;53.144;8.208;2024-02-15T07:33:18;101465.78;;;12.62;100.00
29163;BME280;20331;53.144;8.208;2024-02-15T07:38:42;101476.16;;;12.62;100.00
29163;BME280;20331;53.144;8.208;2024-02-15T07:44:07;101479.72;;;12.60;100.00
29163;BME280;20331;53.144;8.208;2024-02-15T07:49:29;101483.88;;;12.65;100.00
29163;BME280;20331;53.144;8.208;2024-02-15T07:54:51;101483.78;;;12.68;100.00
29163;BME280;20331;53.144;8.208;2024-02-15T08:00:14;101476.75;;;12.72;100.00
29163;BME280;20331;53.144;8.208;2024-02-15T08:05:39;101475.84;;;12.74;100.00
29163;BME280;20331;53.144;8.208;2024-02-15T08:11:04;101471.41;;;12.76;100.00
29163;BME280;20331;53.144;8.208;2024-02-15T08:16:26;101467.03;;;12.78;100.00
29163;BME280;20331;53.144;8.208;2024-02-15T08:21:49;101460.97;;;12.79;100.00
29163;BME280;20331;53.144;8.208;2024-02-15T08:27:12;101459.22;;;12.80;100.00
29163;BME280;20331;53.144;8.208;2024-02-15T08:32:34;101460.91;;;12.81;100.00
29163;BME280;20331;53.144;8.208;2024-02-15T08:37:56;101447.97;;;12.79;100.00
29163;BME280;20331;53.144;8.208;2024-02-15T08:43:18;101458.28;;;12.82;100.00
29163;BME280;20331;53.144;8.208;2024-02-15T08:48:40;101453.94;;;12.83;100.00
29163;BME280;20331;53.144;8.208;2024-02-15T08:54:02;101457.34;;;12.85;100.00
29163;BME280;20331;53.144;8.208;2024-02-15T08:59:24;101452.16;;;12.85;100.00
29163;BME280;20331;53.144;8.208;2024-02-15T09:04:46;101449.41;;;12.89;100.00
29163;BME280;20331;53.144;8.208;2024-02-15T09:10:11;101446.91;;;12.86;100.00
29163;BME280;20331;53.144;8.208;2024-02-15T09:15:33;101444.34;;;12.85;100.00
29163;BME280;20331;53.144;8.208;2024-02-15T09:20:55;101452.09;;;12.86;100.00
29163;BME280;20331;53.144;8.208;2024-02-15T09:26:17;101450.44;;;12.84;100.00
29163;BME280;20331;53.144;8.208;2024-02-15T09:31:39;101448.63;;;12.86;100.00
29163;BME280;20331;53.144;8.208;2024-02-15T09:37:01;101455.66;;;12.82;100.00
29163;BME280;20331;53.144;8.208;2024-02-15T09:42:23;101460.81;;;12.84;100.00
29163;BME280;20331;53.144;8.208;2024-02-15T09:47:46;101449.53;;;12.85;100.00
29163;BME280;20331;53.144;8.208;2024-02-15T09:53:08;101449.66;;;12.80;100.00
29163;BME280;20331;53.144;8.208;2024-02-15T09:58:31;101459.88;;;12.86;100.00
29163;BME280;20331;53.144;8.208;2024-02-15T10:03:56;101458.28;;;12.82;100.00
29163;BME280;20331;53.144;8.208;2024-02-15T10:09:27;101461.69;;;12.84;100.00
29163;BME280;20331;53.144;8.208;2024-02-15T10:14:51;101453.00;;;12.85;100.00
29163;BME280;20331;53.144;8.208;2024-02-15T10:20:13;101442.63;;;12.85;100.00
29163;BME280;20331;53.144;8.208;2024-02-15T10:25:37;101438.19;;;12.89;100.00
29163;BME280;20331;53.144;8.208;2024-02-15T10:31:07;101433.81;;;12.89;100.00
29163;BME280;20331;53.144;8.208;2024-02-15T10:36:29;101431.19;;;12.91;100.00
29163;BME280;20331;53.144;8.208;2024-02-15T10:41:53;101438.13;;;12.90;100.00
29163;BME280;20331;53.144;8.208;2024-02-15T10:47:16;101437.28;;;12.90;100.00
29163;BME280;20331;53.144;8.208;2024-02-15T10:52:51;101435.66;;;12.86;100.00
29163;BME280;20331;53.144;8.208;2024-02-15T10:58:19;101426.78;;;12.93;100.00
29163;BME280;20331;53.144;8.208;2024-02-15T11:03:50;101416.38;;;12.93;100.00
29163;BME280;20331;53.144;8.208;2024-02-15T11:09:13;101417.19;;;12.95;100.00
29163;BME280;20331;53.144;8.208;2024-02-15T11:14:35;101422.31;;;12.98;100.00
29163;BME280;20331;53.144;8.208;2024-02-15T11:19:57;101409.28;;;12.99;100.00
29163;BME280;20331;53.144;8.208;2024-02-15T11:25:31;101405.72;;;13.03;100.00
29163;BME280;20331;53.144;8.208;2024-02-15T11:30:56;101405.63;;;13.06;100.00
29163;BME280;20331;53.144;8.208;2024-02-15T11:36:30;101409.81;;;13.10;100.00
29163;BME280;20331;53.144;8.208;2024-02-15T11:42:28;101402.69;;;13.17;100.00
29163;BME280;20331;53.144;8.208;2024-02-15T11:47:52;101392.34;;;13.16;100.00
29163;BME280;20331;53.144;8.208;2024-02-15T11:53:14;101380.94;;;13.20;100.00
29163;BME280;20331;53.144;8.208;2024-02-15T11:58:35;101383.38;;;13.24;100.00
29163;BME280;20331;53.144;8.208;2024-02-15T12:04:04;101385.84;;;13.29;100.00
29163;BME280;20331;53.144;8.208;2024-02-15T12:10:02;101380.66;;;13.29;100.00
29163;BME280;20331;53.144;8.208;2024-02-15T12:15:56;101383.94;;;13.34;100.00
29163;BME280;20331;53.144;8.208;2024-02-15T12:21:37;101389.16;;;13.34;100.00
29163;BME280;20331;53.144;8.208;2024-02-15T12:27:03;101383.16;;;13.32;100.00
29163;BME280;20331;53.144;8.208;2024-02-15T12:32:26;101390.94;;;13.32;100.00
29163;BME280;20331;53.144;8.208;2024-02-15T12:38:01;101385.75;;;13.32;100.00
29163;BME280;20331;53.144;8.208;2024-02-15T12:43:27;101377.13;;;13.30;100.00
29163;BME280;20331;53.144;8.208;2024-02-15T12:48:49;101382.25;;;13.33;100.00
29163;BME280;20331;53.144;8.208;2024-02-15T12:54:11;101386.53;;;13.34;100.00
29163;BME280;20331;53.144;8.208;2024-02-15T12:59:33;101384.06;;;13.31;100.00
29163;BME280;20331;53.144;8.208;2024-02-15T13:04:58;101373.66;;;13.31;100.00
29163;BME280;20331;53.144;8.208;2024-02-15T13:10:19;101368.34;;;13.34;100.00
29163;BME280;20331;53.144;8.208;2024-02-15T13:15:41;101359.56;;;13.38;100.00
29163;BME280;20331;53.144;8.208;2024-02-15T13:21:04;101355.97;;;13.42;100.00
29163;BME280;20331;53.144;8.208;2024-02-15T13:26:28;101354.16;;;13.44;100.00
29163;BME280;20331;53.144;8.208;2024-02-15T13:31:51;101345.38;;;13.48;100.00
29163;BME280;20331;53.144;8.208;2024-02-15T13:37:13;101346.38;;;13.44;100.00
29163;BME280;20331;53.144;8.208;2024-02-15T13:42:35;101334.19;;;13.44;100.00
29163;BME280;20331;53.144;8.208;2024-02-15T13:47:57;101331.03;;;13.36;100.00
29163;BME280;20331;53.144;8.208;2024-02-15T13:53:19;101326.75;;;13.34;100.00
29163;BME280;20331;53.144;8.208;2024-02-15T13:58:41;101316.28;;;13.37;100.00
29163;BME280;20331;53.144;8.208;2024-02-15T14:04:03;101309.06;;;13.45;100.00
29163;BME280;20331;53.144;8.208;2024-02-15T14:09:25;101306.44;;;13.45;100.00
29163;BME280;20331;53.144;8.208;2024-02-15T14:14:47;101306.38;;;13.48;100.00
29163;BME280;20331;53.144;8.208;2024-02-15T14:20:10;101297.72;;;13.47;100.00
29163;BME280;20331;53.144;8.208;2024-02-15T14:25:35;101293.25;;;13.51;100.00
29163;BME280;20331;53.144;8.208;2024-02-15T14:30:57;101302.00;;;13.48;100.00
29163;BME280;20331;53.144;8.208;2024-02-15T14:36:37;101292.50;;;13.47;100.00
29163;BME280;20331;53.144;8.208;2024-02-15T14:41:59;101306.56;;;13.42;100.00
29163;BME280;20331;53.144;8.208;2024-02-15T14:47:21;101302.13;;;13.45;100.00
29163;BME280;20331;53.144;8.208;2024-02-15T14:52:43;101311.66;;;13.45;100.00
29163;BME280;20331;53.144;8.208;2024-02-15T14:58:06;101319.44;;;13.45;100.00
29163;BME280;20331;53.144;8.208;2024-02-15T15:03:34;101314.25;;;13.45;100.00
29163;BME280;20331;53.144;8.208;2024-02-15T15:08:59;101307.38;;;13.44;100.00
29163;BME280;20331;53.144;8.208;2024-02-15T15:14:40;101314.19;;;13.46;100.00
29163;BME280;20331;53.144;8.208;2024-02-15T15:20:03;101313.31;;;13.47;100.00
29163;BME280;20331;53.144;8.208;2024-02-15T15:25:30;101304.81;;;13.42;100.00
29163;BME280;20331;53.144;8.208;2024-02-15T15:30:52;101306.41;;;13.46;100.00
29163;BME280;20331;53.144;8.208;2024-02-15T15:36:14;101290.22;;;13.38;100.00
29163;BME280;20331;53.144;8.208;2024-02-15T15:41:38;101295.16;;;13.46;100.00
29163;BME280;20331;53.144;8.208;2024-02-15T15:47:00;101303.00;;;13.44;100.00
29163;BME280;20331;53.144;8.208;2024-02-15T15:52:22;101312.56;;;13.44;100.00
29163;BME280;20331;53.144;8.208;2024-02-15T15:57:44;101309.91;;;13.45;100.00
29163;BME280;20331;53.144;8.208;2024-02-15T16:03:06;101294.31;;;13.45;100.00
29163;BME280;20331;53.144;8.208;2024-02-15T16:08:28;101305.44;;;13.49;100.00
29163;BME280;20331;53.144;8.208;2024-02-15T16:13:50;101292.50;;;13.47;100.00
29163;BME280;20331;53.144;8.208;2024-02-15T16:19:12;101295.13;;;13.47;100.00
29163;BME280;20331;53.144;8.208;2024-02-15T16:24:33;101300.25;;;13.49;100.00
29163;BME280;20331;53.144;8.208;2024-02-15T16:29:55;101288.16;;;13.48;100.00
29163;BME280;20331;53.144;8.208;2024-02-15T16:35:17;101279.50;;;13.47;100.00
29163;BME280;20331;53.144;8.208;2024-02-15T16:40:41;101286.34;;;13.50;100.00
29163;BME280;20331;53.144;8.208;2024-02-15T16:46:02;101279.44;;;13.49;100.00
29163;BME280;20331;53.144;8.208;2024-02-15T16:51:25;101274.25;;;13.49;100.00
29163;BME280;20331;53.144;8.208;2024-02-15T16:56:48;101265.72;;;13.45;100.00
29163;BME280;20331;53.144;8.208;2024-02-15T17:02:14;101276.97;;;13.46;100.00
29163;BME280;20331;53.144;8.208;2024-02-15T17:07:35;101276.91;;;13.47;100.00
29163;BME280;20331;53.144;8.208;2024-02-15T17:12:57;101282.84;;;13.51;100.00
29163;BME280;20331;53.144;8.208;2024-02-15T17:18:20;101275.94;;;13.50;100.00
29163;BME280;20331;53.144;8.208;2024-02-15T17:23:47;101269.91;;;13.49;100.00
29163;BME280;20331;53.144;8.208;2024-02-15T17:29:09;101274.25;;;13.49;100.00
29163;BME280;20331;53.144;8.208;2024-02-15T17:34:32;101279.41;;;13.50;100.00
29163;BME280;20331;53.144;8.208;2024-02-15T17:39:54;101274.94;;;13.54;100.00
29163;BME280;20331;53.144;8.208;2024-02-15T17:45:15;101266.34;;;13.52;100.00
29163;BME280;20331;53.144;8.208;2024-02-15T17:50:38;101269.00;;;13.50;100.00
29163;BME280;20331;53.144;8.208;2024-02-15T17:56:00;101264.47;;;13.55;100.00
29163;BME280;20331;53.144;8.208;2024-02-15T18:01:22;101258.31;;;13.58;100.00
29163;BME280;20331;53.144;8.208;2024-02-15T18:06:45;101255.72;;;13.58;100.00
29163;BME280;20331;53.144;8.208;2024-02-15T18:12:07;101253.13;;;13.58;100.00
29163;BME280;20331;53.144;8.208;2024-02-15T18:17:29;101244.53;;;13.56;100.00
29163;BME280;20331;53.144;8.208;2024-02-15T18:22:51;101250.66;;;13.55;100.00
29163;BME280;20331;53.144;8.208;2024-02-15T18:28:14;101254.41;;;13.46;100.00
29163;BME280;20331;53.144;8.208;2024-02-15T18:33:36;101260.66;;;13.41;100.00
29163;BME280;20331;53.144;8.208;2024-02-15T18:39:01;101252.91;;;13.39;100.00
29163;BME280;20331;53.144;8.208;2024-02-15T18:44:23;101249.44;;;13.40;100.00
29163;BME280;20331;53.144;8.208;2024-02-15T18:49:47;101260.44;;;13.47;100.00
29163;BME280;20331;53.144;8.208;2024-02-15T18:55:20;101250.97;;;13.46;100.00
29163;BME280;20331;53.144;8.208;2024-02-15T19:00:42;101244.97;;;13.44;100.00
29163;BME280;20331;53.144;8.208;2024-02-15T19:06:18;101245.19;;;13.38;100.00
29163;BME280;20331;53.144;8.208;2024-02-15T19:11:40;101243.50;;;13.37;100.00
29163;BME280;20331;53.144;8.208;2024-02-15T19:17:02;101237.31;;;13.39;100.00
29163;BME280;20331;53.144;8.208;2024-02-15T19:22:23;101231.25;;;13.39;100.00
29163;BME280;20331;53.144;8.208;2024-02-15T19:27:45;101230.69;;;13.31;100.00
29163;BME280;20331;53.144;8.208;2024-02-15T19:33:07;101238.06;;;13.18;100.00
29163;BME280;20331;53.144;8.208;2024-02-15T19:38:29;101238.34;;;13.10;100.00
29163;BME280;20331;53.144;8.208;2024-02-15T19:43:51;101236.84;;;13.02;100.00
29163;BME280;20331;53.144;8.208;2024-02-15T19:49:16;101231.13;;;12.92;100.00
29163;BME280;20331;53.144;8.208;2024-02-15T19:54:38;101227.91;;;12.84;100.00
29163;BME280;20331;53.144;8.208;2024-02-15T20:00:00;101230.69;;;12.80;100.00
29163;BME280;20331;53.144;8.208;2024-02-15T20:05:22;101229.13;;;12.74;100.00
29163;BME280;20331;53.144;8.208;2024-02-15T20:10:45;101228.41;;;12.69;100.00
29163;BME280;20331;53.144;8.208;2024-02-15T20:16:08;101225.00;;;12.67;100.00
29163;BME280;20331;53.144;8.208;2024-02-15T20:21:34;101214.84;;;12.61;100.00
29163;BME280;20331;53.144;8.208;2024-02-15T20:26:55;101208.91;;;12.58;100.00
29163;BME280;20331;53.144;8.208;2024-02-15T20:32:17;101215.88;;;12.56;100.00
29163;BME280;20331;53.144;8.208;2024-02-15T20:37:40;101206.56;;;12.50;100.00
29163;BME280;20331;53.144;8.208;2024-02-15T20:43:03;101213.38;;;12.53;100.00
29163;BME280;20331;53.144;8.208;2024-02-15T20:48:25;101204.94;;;12.46;100.00
29163;BME280;20331;53.144;8.208;2024-02-15T20:53:47;101192.75;;;12.48;100.00
29163;BME280;20331;53.144;8.208;2024-02-15T20:59:12;101199.56;;;12.52;100.00
29163;BME280;20331;53.144;8.208;2024-02-15T21:04:35;101202.16;;;12.52;100.00
29163;BME280;20331;53.144;8.208;2024-02-15T21:09:57;101193.31;;;12.58;100.00
29163;BME280;20331;53.144;8.208;2024-02-15T21:15:19;101188.94;;;12.60;100.00
29163;BME280;20331;53.144;8.208;2024-02-15T21:20:41;101193.09;;;12.64;100.00
29163;BME280;20331;53.144;8.208;2024-02-15T21:26:03;101188.66;;;12.67;100.00
29163;BME280;20331;53.144;8.208;2024-02-15T21:31:30;101186.06;;;12.67;100.00
29163;BME280;20331;53.144;8.208;2024-02-15T21:36:52;101192.13;;;12.68;100.00
29163;BME280;20331;53.144;8.208;2024-02-15T21:42:13;101185.13;;;12.70;100.00
29163;BME280;20331;53.144;8.208;2024-02-15T21:47:36;101172.25;;;12.67;100.00
29163;BME280;20331;53.144;8.208;2024-02-15T21:52:58;101168.13;;;12.61;100.00
29163;BME280;20331;53.144;8.208;2024-02-15T21:58:21;101166.31;;;12.63;100.00
29163;BME280;20331;53.144;8.208;2024-02-15T22:03:43;101159.31;;;12.65;100.00
29163;BME280;20331;53.144;8.208;2024-02-15T22:09:04;101144.56;;;12.66;100.00
29163;BME280;20331;53.144;8.208;2024-02-15T22:14:26;101142.03;;;12.64;100.00
29163;BME280;20331;53.144;8.208;2024-02-15T22:19:49;101148.81;;;12.68;100.00
29163;BME280;20331;53.144;8.208;2024-02-15T22:25:11;101136.97;;;12.61;100.00
29163;BME280;20331;53.144;8.208;2024-02-15T22:30:33;101133.66;;;12.56;100.00
29163;BME280;20331;53.144;8.208;2024-02-15T22:35:55;101130.34;;;12.51;100.00
29163;BME280;20331;53.144;8.208;2024-02-15T22:41:17;101114.16;;;12.45;100.00
29163;BME280;20331;53.144;8.208;2024-02-15T22:46:46;101124.63;;;12.42;100.00
29163;BME280;20331;53.144;8.208;2024-02-15T22:52:08;101111.00;;;12.35;100.00
29163;BME280;20331;53.144;8.208;2024-02-15T22:57:30;101110.31;;;12.30;100.00
29163;BME280;20331;53.144;8.208;2024-02-15T23:02:53;101105.13;;;12.30;100.00
29163;BME280;20331;53.144;8.208;2024-02-15T23:08:15;101106.06;;;12.28;100.00
29163;BME280;20331;53.144;8.208;2024-02-15T23:13:36;101099.19;;;12.27;100.00
29163;BME280;20331;53.144;8.208;2024-02-15T23:19:01;101074.38;;;12.18;100.00
29163;BME280;20331;53.144;8.208;2024-02-15T23:24:23;101086.34;;;12.22;100.00
29163;BME280;20331;53.144;8.208;2024-02-15T23:29:45;101076.84;;;12.23;100.00
29163;BME280;20331;53.144;8.208;2024-02-15T23:35:07;101088.94;;;12.22;100.00
29163;BME280;20331;53.144;8.208;2024-02-15T23:40:32;101086.47;;;12.19;100.00
29163;BME280;20331;53.144;8.208;2024-02-15T23:45:54;101088.16;;;12.20;100.00
29163;BME280;20331;53.144;8.208;2024-02-15T23:51:16;101077.88;;;12.17;100.00
29163;BME280;20331;53.144;8.208;2024-02-15T23:56:38;101077.75;;;12.20;100.00
